KLM1015 EGLC-EHAM
Flight info
| Callsign | KLM1015 |
|---|---|
| Flight time | 0h 56m |
| Altitude | 21000 |
| Route | ODUKU M84 CLN P44 RATLO M197 REDFA |
| Aircraft | E190/M-SDE3GILORVW/S |
Departure
| Time | 2026-05-07 13:16 |
|---|---|
| Airport | London City Airport (EGLC) |
Arrival
| Time | 2026-05-07 14:13 |
|---|---|
| Airport | Amsterdam Airport Schiphol (EHAM) |
| Time | Latitude | Longitude | Altitude | Speed | Heading |
|---|---|---|---|---|---|
| 2026-05-07 12:56 | 51.50405 | 0.05353 | 28 ft | 0 kts | 326° |
| 2026-05-07 13:13 | 51.50412 | 0.05348 | 24 ft | 2 kts | 339° |
| 2026-05-07 13:13 | 51.50431 | 0.05350 | 25 ft | 4 kts | 4° |
| 2026-05-07 13:13 | 51.50444 | 0.05324 | 25 ft | 5 kts | 280° |
| 2026-05-07 13:13 | 51.50448 | 0.05232 | 25 ft | 12 kts | 273° |
| 2026-05-07 13:14 | 51.50453 | 0.05082 | 24 ft | 14 kts | 278° |
| 2026-05-07 13:14 | 51.50464 | 0.04918 | 24 ft | 15 kts | 272° |
| 2026-05-07 13:14 | 51.50469 | 0.04743 | 24 ft | 16 kts | 273° |
| 2026-05-07 13:14 | 51.50475 | 0.04563 | 24 ft | 16 kts | 271° |
| 2026-05-07 13:15 | 51.50512 | 0.04441 | 24 ft | 13 kts | 345° |
| 2026-05-07 13:15 | 51.50555 | 0.04462 | 25 ft | 2 kts | 56° |
| 2026-05-07 13:15 | 51.50556 | 0.04482 | 24 ft | 0 kts | 93° |
| 2026-05-07 13:16 | 51.50554 | 0.04528 | 24 ft | 26 kts | 93° |
| 2026-05-07 13:16 | 51.50531 | 0.05245 | 24 ft | 101 kts | 92° |
| 2026-05-07 13:16 | 51.50487 | 0.06707 | 168 ft | 150 kts | 93° |
| 2026-05-07 13:16 | 51.50439 | 0.08410 | 1060 ft | 156 kts | 93° |
| 2026-05-07 13:17 | 51.50439 | 0.10264 | 1749 ft | 181 kts | 83° |
| 2026-05-07 13:17 | 51.51023 | 0.12159 | 2387 ft | 209 kts | 41° |
| 2026-05-07 13:17 | 51.52266 | 0.13417 | 3185 ft | 216 kts | 30° |
| 2026-05-07 13:17 | 51.53639 | 0.14674 | 2971 ft | 233 kts | 29° |
| 2026-05-07 13:18 | 51.55008 | 0.15919 | 2920 ft | 220 kts | 31° |
| 2026-05-07 13:18 | 51.56188 | 0.17459 | 2940 ft | 217 kts | 49° |
| 2026-05-07 13:18 | 51.56964 | 0.19541 | 3031 ft | 222 kts | 65° |
| 2026-05-07 13:18 | 51.57558 | 0.21839 | 3045 ft | 223 kts | 71° |
| 2026-05-07 13:19 | 51.58104 | 0.24160 | 2983 ft | 222 kts | 71° |
| 2026-05-07 13:19 | 51.58646 | 0.26465 | 2983 ft | 221 kts | 71° |
| 2026-05-07 13:19 | 51.59204 | 0.28771 | 2993 ft | 221 kts | 70° |
| 2026-05-07 13:19 | 51.59801 | 0.31049 | 3101 ft | 218 kts | 66° |
| 2026-05-07 13:20 | 51.60484 | 0.33220 | 3842 ft | 220 kts | 64° |
| 2026-05-07 13:20 | 51.61193 | 0.35457 | 4456 ft | 227 kts | 65° |
| 2026-05-07 13:20 | 51.61897 | 0.37736 | 5056 ft | 232 kts | 65° |
| 2026-05-07 13:20 | 51.62612 | 0.40090 | 5673 ft | 235 kts | 65° |
| 2026-05-07 13:21 | 51.63332 | 0.42474 | 6242 ft | 239 kts | 66° |
| 2026-05-07 13:21 | 51.64064 | 0.44898 | 6770 ft | 242 kts | 66° |
| 2026-05-07 13:21 | 51.64803 | 0.47344 | 7286 ft | 245 kts | 66° |
| 2026-05-07 13:21 | 51.65561 | 0.49859 | 7780 ft | 254 kts | 65° |
| 2026-05-07 13:22 | 51.66373 | 0.52561 | 8033 ft | 279 kts | 65° |
| 2026-05-07 13:22 | 51.67238 | 0.55440 | 8571 ft | 290 kts | 64° |
| 2026-05-07 13:22 | 51.68117 | 0.58368 | 9373 ft | 292 kts | 65° |
| 2026-05-07 13:22 | 51.69004 | 0.61321 | 10237 ft | 294 kts | 65° |
| 2026-05-07 13:23 | 51.69924 | 0.64393 | 10616 ft | 314 kts | 65° |
| 2026-05-07 13:23 | 51.70900 | 0.67665 | 10937 ft | 333 kts | 65° |
| 2026-05-07 13:23 | 51.71925 | 0.71107 | 11495 ft | 344 kts | 65° |
| 2026-05-07 13:23 | 51.72955 | 0.74567 | 12261 ft | 349 kts | 65° |
| 2026-05-07 13:24 | 51.74012 | 0.78112 | 13075 ft | 352 kts | 65° |
| 2026-05-07 13:24 | 51.75075 | 0.81697 | 13940 ft | 355 kts | 65° |
| 2026-05-07 13:24 | 51.76146 | 0.85319 | 14700 ft | 359 kts | 65° |
| 2026-05-07 13:24 | 51.77235 | 0.89000 | 15446 ft | 365 kts | 65° |
| 2026-05-07 13:25 | 51.78338 | 0.92734 | 16182 ft | 371 kts | 65° |
| 2026-05-07 13:25 | 51.79452 | 0.96512 | 16900 ft | 375 kts | 65° |
| 2026-05-07 13:25 | 51.80578 | 1.00332 | 17720 ft | 378 kts | 65° |
| 2026-05-07 13:25 | 51.81716 | 1.04202 | 18404 ft | 384 kts | 65° |
| 2026-05-07 13:26 | 51.82872 | 1.08121 | 19052 ft | 387 kts | 65° |
| 2026-05-07 13:26 | 51.84047 | 1.12065 | 19698 ft | 391 kts | 65° |
| 2026-05-07 13:26 | 51.85230 | 1.16055 | 20302 ft | 396 kts | 65° |
| 2026-05-07 13:26 | 51.86348 | 1.20136 | 20938 ft | 399 kts | 67° |
| 2026-05-07 13:27 | 51.87444 | 1.24234 | 21140 ft | 393 kts | 67° |
| 2026-05-07 13:27 | 51.88516 | 1.28226 | 21108 ft | 382 kts | 67° |
| 2026-05-07 13:27 | 51.89569 | 1.32147 | 21084 ft | 378 kts | 67° |
| 2026-05-07 13:27 | 51.90598 | 1.35984 | 21088 ft | 376 kts | 67° |
| 2026-05-07 13:28 | 51.91641 | 1.39883 | 21086 ft | 376 kts | 67° |
| 2026-05-07 13:28 | 51.92677 | 1.43764 | 21099 ft | 375 kts | 67° |
| 2026-05-07 13:28 | 51.93702 | 1.47611 | 21095 ft | 375 kts | 67° |
| 2026-05-07 13:28 | 51.94732 | 1.51480 | 21090 ft | 374 kts | 67° |
| 2026-05-07 13:29 | 51.95625 | 1.54842 | 21084 ft | 374 kts | 67° |
| 2026-05-07 13:29 | 51.96623 | 1.58606 | 21093 ft | 374 kts | 67° |
| 2026-05-07 13:29 | 51.97649 | 1.62478 | 21092 ft | 374 kts | 67° |
| 2026-05-07 13:29 | 51.98674 | 1.66358 | 21094 ft | 374 kts | 67° |
| 2026-05-07 13:30 | 51.99523 | 1.70282 | 21096 ft | 374 kts | 74° |
| 2026-05-07 13:30 | 52.00183 | 1.74365 | 21099 ft | 374 kts | 77° |
| 2026-05-07 13:30 | 52.00804 | 1.78463 | 21101 ft | 374 kts | 77° |
| 2026-05-07 13:30 | 52.01429 | 1.82564 | 21103 ft | 374 kts | 77° |
| 2026-05-07 13:31 | 52.02058 | 1.86661 | 21102 ft | 374 kts | 76° |
| 2026-05-07 13:31 | 52.02686 | 1.90761 | 21103 ft | 374 kts | 77° |
| 2026-05-07 13:31 | 52.03315 | 1.94855 | 21104 ft | 374 kts | 77° |
| 2026-05-07 13:31 | 52.03730 | 1.97566 | 21108 ft | 373 kts | 76° |
| 2026-05-07 13:32 | 52.07034 | 2.19605 | 21106 ft | 373 kts | 77° |
| 2026-05-07 13:32 | 52.11998 | 2.51295 | 21092 ft | 374 kts | 66° |
| 2026-05-07 13:32 | 52.14252 | 2.57147 | 21105 ft | 376 kts | 57° |
| 2026-05-07 13:32 | 52.14965 | 2.58933 | 20979 ft | 376 kts | 58° |
| 2026-05-07 13:33 | 52.15656 | 2.60745 | 20881 ft | 374 kts | 59° |
| 2026-05-07 13:33 | 52.16313 | 2.62551 | 21072 ft | 368 kts | 60° |
| 2026-05-07 13:33 | 52.16954 | 2.64360 | 21276 ft | 370 kts | 62° |
| 2026-05-07 13:33 | 52.17533 | 2.66249 | 21394 ft | 373 kts | 67° |
| 2026-05-07 13:34 | 52.17977 | 2.68237 | 21332 ft | 375 kts | 75° |
| 2026-05-07 13:34 | 52.18202 | 2.72487 | 20501 ft | 383 kts | 98° |
| 2026-05-07 13:34 | 52.18026 | 2.74612 | 20526 ft | 372 kts | 97° |
| 2026-05-07 13:35 | 52.18005 | 2.76670 | 20946 ft | 357 kts | 84° |
| 2026-05-07 13:35 | 52.18255 | 2.78619 | 21613 ft | 350 kts | 75° |
| 2026-05-07 13:35 | 52.18660 | 2.80525 | 21568 ft | 362 kts | 66° |
| 2026-05-07 13:35 | 52.19286 | 2.82315 | 21419 ft | 365 kts | 54° |
| 2026-05-07 13:36 | 52.20100 | 2.83877 | 21296 ft | 367 kts | 47° |
| 2026-05-07 13:36 | 52.20945 | 2.85453 | 21129 ft | 370 kts | 53° |
| 2026-05-07 13:36 | 52.21677 | 2.87173 | 21112 ft | 368 kts | 58° |
| 2026-05-07 13:36 | 52.22362 | 2.88935 | 21084 ft | 369 kts | 58° |
| 2026-05-07 13:37 | 52.23066 | 2.90690 | 21097 ft | 369 kts | 57° |
| 2026-05-07 13:37 | 52.23782 | 2.92437 | 21089 ft | 371 kts | 56° |
| 2026-05-07 13:37 | 52.24505 | 2.94188 | 21095 ft | 372 kts | 56° |
| 2026-05-07 13:37 | 52.25232 | 2.95942 | 21096 ft | 372 kts | 56° |
| 2026-05-07 13:38 | 52.25958 | 2.97686 | 21085 ft | 371 kts | 56° |
| 2026-05-07 13:38 | 52.26692 | 2.99422 | 21087 ft | 372 kts | 56° |
| 2026-05-07 13:38 | 52.27434 | 3.01153 | 21089 ft | 372 kts | 55° |
| 2026-05-07 13:38 | 52.28178 | 3.02886 | 21092 ft | 372 kts | 55° |
| 2026-05-07 13:39 | 52.28911 | 3.04600 | 21096 ft | 372 kts | 55° |
| 2026-05-07 13:39 | 52.29662 | 3.06354 | 21102 ft | 372 kts | 55° |
| 2026-05-07 13:39 | 52.30394 | 3.08065 | 21115 ft | 372 kts | 55° |
| 2026-05-07 13:39 | 52.31136 | 3.09801 | 21117 ft | 373 kts | 55° |
| 2026-05-07 13:40 | 52.31879 | 3.11540 | 21074 ft | 374 kts | 56° |
| 2026-05-07 13:40 | 52.32628 | 3.13301 | 20622 ft | 380 kts | 56° |
| 2026-05-07 13:40 | 52.33386 | 3.15084 | 20207 ft | 382 kts | 56° |
| 2026-05-07 13:40 | 52.34139 | 3.16860 | 20006 ft | 377 kts | 56° |
| 2026-05-07 13:41 | 52.34886 | 3.18616 | 19745 ft | 373 kts | 55° |
| 2026-05-07 13:41 | 52.35625 | 3.20352 | 19473 ft | 370 kts | 56° |
| 2026-05-07 13:41 | 52.36356 | 3.22073 | 19216 ft | 367 kts | 55° |
| 2026-05-07 13:41 | 52.37073 | 3.23762 | 18967 ft | 364 kts | 56° |
| 2026-05-07 13:42 | 52.37795 | 3.25462 | 18720 ft | 362 kts | 55° |
| 2026-05-07 13:42 | 52.38511 | 3.27149 | 18478 ft | 359 kts | 56° |
| 2026-05-07 13:42 | 52.39220 | 3.28820 | 18222 ft | 356 kts | 56° |
| 2026-05-07 13:42 | 52.39925 | 3.30483 | 17976 ft | 353 kts | 56° |
| 2026-05-07 13:43 | 52.40620 | 3.32123 | 17769 ft | 351 kts | 56° |
| 2026-05-07 13:43 | 52.41315 | 3.33763 | 17543 ft | 350 kts | 56° |
| 2026-05-07 13:43 | 52.41998 | 3.35377 | 17308 ft | 349 kts | 55° |
| 2026-05-07 13:43 | 52.42689 | 3.37010 | 17083 ft | 348 kts | 56° |
| 2026-05-07 13:44 | 52.43378 | 3.38641 | 16849 ft | 347 kts | 56° |
| 2026-05-07 13:44 | 52.44065 | 3.40268 | 16617 ft | 347 kts | 55° |
| 2026-05-07 13:44 | 52.44709 | 3.41951 | 16360 ft | 347 kts | 63° |
| 2026-05-07 13:44 | 52.45159 | 3.43787 | 16086 ft | 347 kts | 73° |
| 2026-05-07 13:45 | 52.45451 | 3.45694 | 15889 ft | 343 kts | 78° |
| 2026-05-07 13:45 | 52.45688 | 3.47609 | 15669 ft | 342 kts | 79° |
| 2026-05-07 13:45 | 52.45929 | 3.49519 | 15421 ft | 342 kts | 78° |
| 2026-05-07 13:45 | 52.46181 | 3.51398 | 15199 ft | 341 kts | 78° |
| 2026-05-07 13:46 | 52.46438 | 3.53291 | 14967 ft | 340 kts | 78° |
| 2026-05-07 13:46 | 52.46695 | 3.55174 | 14736 ft | 336 kts | 78° |
| 2026-05-07 13:46 | 52.46952 | 3.57034 | 14519 ft | 333 kts | 77° |
| 2026-05-07 13:46 | 52.47207 | 3.58878 | 14303 ft | 330 kts | 78° |
| 2026-05-07 13:47 | 52.47459 | 3.60704 | 14080 ft | 327 kts | 78° |
| 2026-05-07 13:47 | 52.47711 | 3.62520 | 13866 ft | 324 kts | 77° |
| 2026-05-07 13:47 | 52.47961 | 3.64314 | 13638 ft | 321 kts | 78° |
| 2026-05-07 13:47 | 52.48200 | 3.66087 | 13440 ft | 317 kts | 78° |
| 2026-05-07 13:48 | 52.48432 | 3.67843 | 13246 ft | 313 kts | 78° |
| 2026-05-07 13:48 | 52.48639 | 3.69587 | 13029 ft | 309 kts | 84° |
| 2026-05-07 13:48 | 52.48663 | 3.71340 | 12833 ft | 306 kts | 97° |
| 2026-05-07 13:48 | 52.48435 | 3.73010 | 12645 ft | 302 kts | 111° |
| 2026-05-07 13:49 | 52.47985 | 3.74549 | 12503 ft | 297 kts | 121° |
| 2026-05-07 13:49 | 52.47450 | 3.75991 | 12374 ft | 294 kts | 123° |
| 2026-05-07 13:49 | 52.46907 | 3.77404 | 12233 ft | 293 kts | 123° |
| 2026-05-07 13:49 | 52.46365 | 3.78824 | 12096 ft | 293 kts | 123° |
| 2026-05-07 13:50 | 52.45828 | 3.80239 | 11964 ft | 293 kts | 123° |
| 2026-05-07 13:50 | 52.45285 | 3.81667 | 11728 ft | 296 kts | 123° |
| 2026-05-07 13:50 | 52.44742 | 3.83107 | 11490 ft | 298 kts | 123° |
| 2026-05-07 13:50 | 52.44197 | 3.84548 | 11274 ft | 297 kts | 123° |
| 2026-05-07 13:51 | 52.43652 | 3.85987 | 11055 ft | 296 kts | 123° |
| 2026-05-07 13:51 | 52.43114 | 3.87421 | 10842 ft | 295 kts | 123° |
| 2026-05-07 13:51 | 52.42579 | 3.88856 | 10621 ft | 294 kts | 123° |
| 2026-05-07 13:51 | 52.42048 | 3.90281 | 10419 ft | 293 kts | 122° |
| 2026-05-07 13:52 | 52.41516 | 3.91697 | 10204 ft | 291 kts | 123° |
| 2026-05-07 13:52 | 52.40987 | 3.93106 | 9998 ft | 290 kts | 123° |
| 2026-05-07 13:52 | 52.40463 | 3.94513 | 9767 ft | 288 kts | 122° |
| 2026-05-07 13:52 | 52.39946 | 3.95890 | 9535 ft | 287 kts | 123° |
| 2026-05-07 13:53 | 52.39422 | 3.97278 | 9301 ft | 285 kts | 123° |
| 2026-05-07 13:53 | 52.38901 | 3.98661 | 9035 ft | 286 kts | 123° |
| 2026-05-07 13:53 | 52.38383 | 4.00045 | 8792 ft | 284 kts | 123° |
| 2026-05-07 13:53 | 52.37872 | 4.01419 | 8526 ft | 280 kts | 123° |
| 2026-05-07 13:54 | 52.37365 | 4.02771 | 8258 ft | 277 kts | 123° |
| 2026-05-07 13:54 | 52.36862 | 4.04116 | 7978 ft | 273 kts | 123° |
| 2026-05-07 13:54 | 52.36370 | 4.05441 | 7644 ft | 271 kts | 123° |
| 2026-05-07 13:54 | 52.35883 | 4.06750 | 7329 ft | 267 kts | 123° |
| 2026-05-07 13:55 | 52.35404 | 4.08037 | 6996 ft | 263 kts | 123° |
| 2026-05-07 13:55 | 52.34928 | 4.09306 | 6672 ft | 261 kts | 123° |
| 2026-05-07 13:55 | 52.34456 | 4.10563 | 6330 ft | 258 kts | 123° |
| 2026-05-07 13:55 | 52.33988 | 4.11808 | 5972 ft | 256 kts | 123° |
| 2026-05-07 13:56 | 52.33518 | 4.13042 | 5619 ft | 254 kts | 123° |
| 2026-05-07 13:56 | 52.33052 | 4.14249 | 5275 ft | 254 kts | 123° |
| 2026-05-07 13:56 | 52.32578 | 4.15464 | 4928 ft | 252 kts | 123° |
| 2026-05-07 13:56 | 52.32104 | 4.16670 | 4568 ft | 252 kts | 122° |
| 2026-05-07 13:57 | 52.31628 | 4.17867 | 4279 ft | 248 kts | 123° |
| 2026-05-07 13:57 | 52.31156 | 4.19044 | 3999 ft | 245 kts | 123° |
| 2026-05-07 13:57 | 52.30692 | 4.20194 | 3826 ft | 238 kts | 122° |
| 2026-05-07 13:57 | 52.30236 | 4.21305 | 3656 ft | 232 kts | 123° |
| 2026-05-07 13:58 | 52.29784 | 4.22391 | 3492 ft | 229 kts | 123° |
| 2026-05-07 13:58 | 52.29341 | 4.23455 | 3435 ft | 224 kts | 123° |
| 2026-05-07 13:58 | 52.28906 | 4.24500 | 3463 ft | 229 kts | 123° |
| 2026-05-07 13:58 | 52.28451 | 4.25603 | 3219 ft | 236 kts | 123° |
| 2026-05-07 13:59 | 52.27996 | 4.26712 | 2998 ft | 233 kts | 123° |
| 2026-05-07 13:59 | 52.27544 | 4.27802 | 2790 ft | 230 kts | 123° |
| 2026-05-07 13:59 | 52.27101 | 4.28874 | 2603 ft | 226 kts | 123° |
| 2026-05-07 13:59 | 52.26665 | 4.29937 | 2417 ft | 224 kts | 122° |
| 2026-05-07 14:00 | 52.26229 | 4.30980 | 2245 ft | 222 kts | 123° |
| 2026-05-07 14:00 | 52.25792 | 4.32026 | 2065 ft | 223 kts | 122° |
| 2026-05-07 14:00 | 52.25360 | 4.33058 | 2026 ft | 216 kts | 122° |
| 2026-05-07 14:00 | 52.24931 | 4.34062 | 2027 ft | 217 kts | 123° |
| 2026-05-07 14:01 | 52.24498 | 4.35086 | 2034 ft | 222 kts | 123° |
| 2026-05-07 14:01 | 52.24060 | 4.36133 | 2048 ft | 224 kts | 123° |
| 2026-05-07 14:01 | 52.23624 | 4.37166 | 2063 ft | 223 kts | 123° |
| 2026-05-07 14:01 | 52.23212 | 4.38234 | 2056 ft | 222 kts | 114° |
| 2026-05-07 14:02 | 52.22960 | 4.39409 | 2046 ft | 218 kts | 99° |
| 2026-05-07 14:02 | 52.22883 | 4.40635 | 2081 ft | 217 kts | 91° |
| 2026-05-07 14:02 | 52.22852 | 4.41854 | 2140 ft | 214 kts | 92° |
| 2026-05-07 14:02 | 52.22809 | 4.43062 | 2146 ft | 211 kts | 93° |
| 2026-05-07 14:03 | 52.22765 | 4.44257 | 2014 ft | 209 kts | 92° |
| 2026-05-07 14:03 | 52.22721 | 4.45422 | 2004 ft | 201 kts | 92° |
| 2026-05-07 14:03 | 52.22674 | 4.46546 | 1987 ft | 198 kts | 94° |
| 2026-05-07 14:03 | 52.22630 | 4.47652 | 2024 ft | 193 kts | 92° |
| 2026-05-07 14:04 | 52.22585 | 4.48751 | 1986 ft | 197 kts | 93° |
| 2026-05-07 14:04 | 52.22536 | 4.49856 | 1997 ft | 192 kts | 93° |
| 2026-05-07 14:04 | 52.22484 | 4.50922 | 2002 ft | 186 kts | 94° |
| 2026-05-07 14:04 | 52.22437 | 4.51969 | 1969 ft | 183 kts | 92° |
| 2026-05-07 14:05 | 52.22394 | 4.52996 | 1949 ft | 180 kts | 92° |
| 2026-05-07 14:05 | 52.22351 | 4.54013 | 1928 ft | 180 kts | 93° |
| 2026-05-07 14:05 | 52.22312 | 4.55015 | 1926 ft | 179 kts | 91° |
| 2026-05-07 14:05 | 52.22320 | 4.56012 | 1963 ft | 173 kts | 84° |
| 2026-05-07 14:06 | 52.22459 | 4.56973 | 1991 ft | 177 kts | 68° |
| 2026-05-07 14:06 | 52.22748 | 4.57852 | 2030 ft | 175 kts | 57° |
| 2026-05-07 14:06 | 52.23111 | 4.58652 | 2032 ft | 176 kts | 53° |
| 2026-05-07 14:06 | 52.23473 | 4.59457 | 2008 ft | 177 kts | 56° |
| 2026-05-07 14:07 | 52.23800 | 4.60308 | 1959 ft | 175 kts | 59° |
| 2026-05-07 14:07 | 52.24097 | 4.61166 | 1838 ft | 173 kts | 60° |
| 2026-05-07 14:07 | 52.24394 | 4.62007 | 1699 ft | 168 kts | 59° |
| 2026-05-07 14:07 | 52.24698 | 4.62805 | 1582 ft | 163 kts | 57° |
| 2026-05-07 14:08 | 52.24997 | 4.63559 | 1494 ft | 154 kts | 58° |
| 2026-05-07 14:08 | 52.25276 | 4.64266 | 1393 ft | 148 kts | 56° |
| 2026-05-07 14:08 | 52.25555 | 4.64964 | 1260 ft | 148 kts | 56° |
| 2026-05-07 14:08 | 52.25842 | 4.65685 | 1156 ft | 153 kts | 60° |
| 2026-05-07 14:09 | 52.26125 | 4.66442 | 1058 ft | 153 kts | 58° |
| 2026-05-07 14:09 | 52.26395 | 4.67177 | 961 ft | 150 kts | 57° |
| 2026-05-07 14:09 | 52.26670 | 4.67903 | 841 ft | 156 kts | 58° |
| 2026-05-07 14:09 | 52.26955 | 4.68650 | 742 ft | 154 kts | 58° |
| 2026-05-07 14:10 | 52.27239 | 4.69376 | 662 ft | 149 kts | 56° |
| 2026-05-07 14:10 | 52.27524 | 4.70083 | 558 ft | 148 kts | 56° |
| 2026-05-07 14:10 | 52.27803 | 4.70799 | 455 ft | 155 kts | 56° |
| 2026-05-07 14:10 | 52.28083 | 4.71548 | 363 ft | 157 kts | 57° |
| 2026-05-07 14:11 | 52.28363 | 4.72300 | 177 ft | 152 kts | 58° |
| 2026-05-07 14:11 | 52.28632 | 4.73016 | 66 ft | 141 kts | 57° |
| 2026-05-07 14:11 | 52.28887 | 4.73672 | 36 ft | 132 kts | 54° |
| 2026-05-07 14:11 | 52.29119 | 4.74272 | 0 ft | 118 kts | 57° |
| 2026-05-07 14:12 | 52.29316 | 4.74779 | -2 ft | 93 kts | 56° |
| 2026-05-07 14:12 | 52.29465 | 4.75169 | -4 ft | 69 kts | 58° |
| 2026-05-07 14:12 | 52.29581 | 4.75469 | -3 ft | 58 kts | 58° |
| 2026-05-07 14:12 | 52.29697 | 4.75724 | -3 ft | 54 kts | 36° |
| 2026-05-07 14:13 | 52.29854 | 4.75867 | -3 ft | 49 kts | 28° |
| 2026-05-07 14:13 | 52.29986 | 4.75970 | -2 ft | 26 kts | 13° |
| 2026-05-07 14:13 | 52.30026 | 4.75960 | -2 ft | 5 kts | 323° |
| 2026-05-07 14:13 | 52.30028 | 4.75948 | -2 ft | 3 kts | 294° |
| 2026-05-07 14:14 | 52.30034 | 4.75927 | -2 ft | 5 kts | 294° |
| 2026-05-07 14:14 | 52.30047 | 4.75914 | -2 ft | 3 kts | 343° |
| 2026-05-07 14:14 | 52.30062 | 4.75915 | -2 ft | 5 kts | 11° |
| 2026-05-07 14:14 | 52.30069 | 4.75933 | -2 ft | 8 kts | 59° |
| 2026-05-07 14:15 | 52.30138 | 4.76114 | -2 ft | 27 kts | 58° |
| 2026-05-07 14:15 | 52.30213 | 4.76243 | -2 ft | 9 kts | 355° |
| 2026-05-07 14:15 | 52.30230 | 4.76229 | -2 ft | 0 kts | 331° |
| 2026-05-07 14:15 | 52.30233 | 4.76226 | -2 ft | 1 kts | 331° |
| 2026-05-07 14:16 | 52.30242 | 4.76213 | -2 ft | 2 kts | 313° |
| 2026-05-07 14:16 | 52.30243 | 4.76192 | -2 ft | 2 kts | 253° |
| 2026-05-07 14:16 | 52.30239 | 4.76179 | -2 ft | 2 kts | 239° |
| 2026-05-07 14:16 | 52.30232 | 4.76160 | -2 ft | 2 kts | 238° |
| 2026-05-07 14:17 | 52.30227 | 4.76146 | -2 ft | 1 kts | 238° |
| 2026-05-07 14:17 | 52.30225 | 4.76142 | -2 ft | 0 kts | 238° |